Time;durP1;ratioP1;P1;durP2;ratioP2;P2;SDS_P1;SDS_P2;PMS_P1;PMS_P2;Temp;Humidity;BMP_temperature;BMP_pressure;BME280_temperature;BME280_humidity;BME280_pressure;Samples;Min_cycle;Max_cycle;Signal;HPM_P1;HPM_P2
2024/02/24 00:01:47;;;;;;;4.28;2.55;;;1.90;99.90;;;;;;5105933;28;20118;-68
2024/02/24 00:04:14;;;;;;;5.18;2.15;;;1.90;99.90;;;;;;5109145;28;20043;-61
2024/02/24 00:06:41;;;;;;;4.95;1.80;;;1.90;99.90;;;;;;5109124;28;20036;-61
2024/02/24 00:09:09;;;;;;;3.20;2.42;;;1.90;99.90;;;;;;5108711;28;20371;-65
2024/02/24 00:11:36;;;;;;;3.67;2.28;;;1.90;99.90;;;;;;5107435;28;20391;-61
2024/02/24 00:14:03;;;;;;;6.68;2.38;;;1.90;99.90;;;;;;5104146;28;20108;-61
2024/02/24 00:16:30;;;;;;;9.50;2.67;;;1.90;99.90;;;;;;5108917;28;20040;-66
2024/02/24 00:18:59;;;;;;;5.63;2.22;;;2.00;99.90;;;;;;5106118;28;20446;-61
2024/02/24 00:21:26;;;;;;;3.55;1.90;;;2.00;99.90;;;;;;5109040;28;20048;-61
2024/02/24 00:23:54;;;;;;;6.15;2.03;;;2.00;99.90;;;;;;5108608;28;20048;-63
2024/02/24 00:26:21;;;;;;;3.25;2.78;;;2.00;99.90;;;;;;5108764;28;20055;-60
2024/02/24 00:28:49;;;;;;;4.18;2.38;;;2.00;99.90;;;;;;5109233;28;20062;-60
2024/02/24 00:31:16;;;;;;;5.32;2.60;;;2.00;99.90;;;;;;5108400;28;20059;-70
2024/02/24 00:33:43;;;;;;;3.67;2.55;;;2.00;99.90;;;;;;5109731;28;20135;-64
2024/02/24 00:36:10;;;;;;;8.00;2.00;;;2.00;99.90;;;;;;5112792;28;20046;-61
2024/02/24 00:38:38;;;;;;;5.68;2.28;;;2.00;99.90;;;;;;5112382;28;20074;-65
2024/02/24 00:41:05;;;;;;;5.93;2.22;;;2.00;99.90;;;;;;5112926;28;20035;-62
2024/02/24 00:43:32;;;;;;;6.10;2.35;;;2.00;99.90;;;;;;5112915;28;20078;-63
2024/02/24 00:46:00;;;;;;;6.60;2.00;;;2.00;99.90;;;;;;5112513;28;20040;-61
2024/02/24 00:48:30;;;;;;;5.50;1.70;;;2.00;99.90;;;;;;5111003;28;20471;-65
2024/02/24 00:50:57;;;;;;;;;;;2.10;99.90;;;;;;5111014;28;20040;-61
2024/02/24 00:53:26;;;;;;;5.15;2.22;;;2.10;99.90;;;;;;5108942;28;19959;-63
2024/02/24 00:55:54;;;;;;;5.38;2.55;;;2.10;99.90;;;;;;5112878;28;20052;-62
2024/02/24 00:58:20;;;;;;;5.15;2.35;;;2.10;99.90;;;;;;5093480;28;20490;-61
2024/02/24 01:00:47;;;;;;;2.72;1.75;;;2.10;99.90;;;;;;5095396;28;20657;-62
2024/02/24 01:03:14;;;;;;;5.53;1.83;;;2.10;99.90;;;;;;5111202;28;20051;-60
2024/02/24 01:05:41;;;;;;;5.90;2.13;;;2.10;99.90;;;;;;5112291;28;20089;-62
2024/02/24 01:08:09;;;;;;;5.15;1.95;;;2.10;99.90;;;;;;5112057;28;20035;-62
2024/02/24 01:10:37;;;;;;;2.22;1.85;;;2.20;99.90;;;;;;5112381;28;20089;-61
2024/02/24 01:13:04;;;;;;;4.30;2.38;;;2.20;99.90;;;;;;5112684;28;20047;-60
2024/02/24 01:15:32;;;;;;;7.53;2.10;;;2.20;99.90;;;;;;5110438;28;20048;-62
2024/02/24 01:18:00;;;;;;;9.13;2.00;;;2.20;99.90;;;;;;5108753;28;20036;-61
2024/02/24 01:20:29;;;;;;;6.20;2.53;;;2.30;99.90;;;;;;5107066;28;20066;-69
2024/02/24 01:22:58;;;;;;;10.30;2.30;;;2.30;99.90;;;;;;5111836;28;20044;-63
2024/02/24 01:25:25;;;;;;;7.55;2.05;;;2.40;99.90;;;;;;5108287;28;20467;-64
2024/02/24 01:27:53;;;;;;;8.02;2.00;;;2.50;99.90;;;;;;5106405;28;20047;-66
2024/02/24 01:30:20;;;;;;;5.22;2.13;;;2.50;99.90;;;;;;5090799;28;20048;-62
2024/02/24 01:32:47;;;;;;;4.45;1.80;;;2.50;99.90;;;;;;5109174;28;20058;-61
2024/02/24 01:35:15;;;;;;;6.10;1.90;;;2.50;99.90;;;;;;5109983;28;20044;-60
2024/02/24 01:37:42;;;;;;;5.63;1.98;;;2.50;99.90;;;;;;5110464;28;20514;-64
2024/02/24 01:40:09;;;;;;;4.88;2.33;;;2.60;99.90;;;;;;5110684;28;20043;-63
2024/02/24 01:42:36;;;;;;;5.30;2.15;;;2.60;99.90;;;;;;5111995;28;20043;-61
2024/02/24 01:45:03;;;;;;;6.03;2.03;;;2.50;99.90;;;;;;5111486;28;20044;-62
2024/02/24 01:47:30;;;;;;;4.53;1.92;;;2.60;99.90;;;;;;5108238;28;20124;-61
2024/02/24 01:49:58;;;;;;;2.63;2.42;;;2.60;99.90;;;;;;5109146;28;20078;-60
2024/02/24 01:52:26;;;;;;;3.22;1.67;;;2.60;99.90;;;;;;5103520;28;20058;-64
2024/02/24 01:54:55;;;;;;;4.55;2.25;;;2.60;99.90;;;;;;5109458;28;20047;-61
2024/02/24 01:57:25;;;;;;;3.93;2.20;;;2.60;99.90;;;;;;5110817;28;20035;-62
2024/02/24 01:59:52;;;;;;;4.32;3.33;;;2.70;99.90;;;;;;5110727;28;20065;-60
2024/02/24 02:02:19;;;;;;;4.05;1.77;;;2.70;99.90;;;;;;5111532;28;20394;-60
2024/02/24 02:04:46;;;;;;;1.80;1.70;;;2.70;99.90;;;;;;5110741;28;20051;-63
2024/02/24 02:07:14;;;;;;;1.58;1.48;;;2.70;99.90;;;;;;5109371;28;20040;-60
2024/02/24 02:09:58;;;;;;;2.13;1.85;;;2.70;99.90;;;;;;5109424;28;20056;-60
2024/02/24 02:12:28;;;;;;;2.95;2.22;;;2.70;99.90;;;;;;5108098;28;20104;-65
2024/02/24 02:14:55;;;;;;;2.33;1.38;;;2.60;99.90;;;;;;5110025;28;20046;-63
2024/02/24 02:17:22;;;;;;;3.40;2.20;;;2.70;99.90;;;;;;5109431;28;20479;-62
2024/02/24 02:19:49;;;;;;;3.30;2.10;;;2.60;99.90;;;;;;5108206;28;20044;-60
2024/02/24 02:22:17;;;;;;;6.90;2.03;;;2.70;99.90;;;;;;5110848;28;20051;-61
2024/02/24 02:24:45;;;;;;;3.75;1.65;;;2.60;99.90;;;;;;5109050;28;20052;-60
2024/02/24 02:27:12;;;;;;;4.55;1.83;;;2.60;99.90;;;;;;5105068;28;20096;-61
2024/02/24 02:29:39;;;;;;;2.45;1.63;;;2.60;99.90;;;;;;5110270;28;20134;-66
2024/02/24 02:32:07;;;;;;;4.30;2.17;;;2.70;99.90;;;;;;5110030;28;20035;-63
2024/02/24 02:34:35;;;;;;;3.65;1.80;;;2.70;99.90;;;;;;5109883;28;20035;-61
2024/02/24 02:37:03;;;;;;;5.00;2.00;;;2.70;99.90;;;;;;5107985;28;20150;-62
2024/02/24 02:39:30;;;;;;;1.85;1.65;;;2.70;99.90;;;;;;5107730;28;20122;-64
2024/02/24 02:41:57;;;;;;;3.72;1.83;;;2.70;99.90;;;;;;5107778;28;20046;-65
2024/02/24 02:44:24;;;;;;;2.75;2.17;;;2.80;99.90;;;;;;5110337;28;20051;-63
2024/02/24 02:46:51;;;;;;;1.50;1.30;;;2.80;99.90;;;;;;5109502;28;20063;-62
2024/02/24 02:49:18;;;;;;;6.07;1.70;;;2.80;99.90;;;;;;5106759;28;20050;-60
2024/02/24 02:51:46;;;;;;;2.10;1.50;;;2.80;99.90;;;;;;5105543;28;20483;-61
2024/02/24 02:54:13;;;;;;;4.28;1.73;;;2.80;99.90;;;;;;5105793;28;20051;-64
2024/02/24 02:56:40;;;;;;;5.60;1.65;;;2.70;99.90;;;;;;5106847;28;20059;-65
2024/02/24 02:59:07;;;;;;;6.85;2.83;;;2.70;99.90;;;;;;5110055;28;20543;-71
2024/02/24 03:01:34;;;;;;;7.55;2.22;;;2.70;99.90;;;;;;5106237;28;20039;-72
2024/02/24 03:04:01;;;;;;;4.00;1.33;;;2.70;99.90;;;;;;5106731;28;20605;-62
2024/02/24 03:06:31;;;;;;;1.75;1.55;;;2.70;99.90;;;;;;5109252;28;20036;-65
2024/02/24 03:08:59;;;;;;;5.45;1.55;;;2.70;99.90;;;;;;5109277;28;20046;-64
2024/02/24 03:11:26;;;;;;;2.83;1.38;;;2.70;99.90;;;;;;5106590;28;20132;-66
2024/02/24 03:13:53;;;;;;;3.90;1.88;;;2.70;99.90;;;;;;5101722;28;20204;-61
2024/02/24 03:16:20;;;;;;;5.22;1.73;;;2.70;99.90;;;;;;5089081;28;20044;-70
2024/02/24 03:18:47;;;;;;;2.25;1.55;;;2.70;99.90;;;;;;5099010;28;20047;-63
2024/02/24 03:21:31;;;;;;;6.28;1.67;;;2.70;99.90;;;;;;5106464;28;20108;-67
2024/02/24 03:24:00;;;;;;;4.35;1.77;;;2.70;99.90;;;;;;5106556;28;20044;-60
2024/02/24 03:26:27;;;;;;;5.90;1.95;;;2.60;99.90;;;;;;5102571;28;20122;-62
2024/02/24 03:28:55;;;;;;;4.35;1.75;;;2.70;99.90;;;;;;5107172;28;20055;-62
2024/02/24 03:31:21;;;;;;;5.55;1.88;;;2.60;99.90;;;;;;5106720;28;20042;-61
2024/02/24 03:33:48;;;;;;;5.43;2.20;;;2.70;99.90;;;;;;5103433;28;20040;-62
2024/02/24 03:36:17;;;;;;;2.65;1.52;;;2.60;99.90;;;;;;5108349;28;20043;-65
2024/02/24 03:38:45;;;;;;;7.18;2.75;;;2.60;99.90;;;;;;5105986;28;20126;-60
2024/02/24 03:41:12;;;;;;;3.97;1.88;;;2.70;99.90;;;;;;5109315;28;20048;-60
2024/02/24 03:43:39;;;;;;;7.15;2.72;;;2.70;99.90;;;;;;5107262;28;20052;-68
2024/02/24 03:46:06;;;;;;;4.20;1.60;;;2.70;99.90;;;;;;5105311;28;20040;-61
2024/02/24 03:48:33;;;;;;;4.75;1.83;;;2.70;99.90;;;;;;5103719;28;20044;-63
2024/02/24 03:51:00;;;;;;;4.95;1.63;;;2.70;99.90;;;;;;5106993;28;20051;-70
2024/02/24 03:53:30;;;;;;;4.00;1.65;;;2.70;99.90;;;;;;5107203;28;20469;-63
2024/02/24 03:55:58;;;;;;;4.65;1.23;;;2.70;99.90;;;;;;5109627;28;20073;-61
2024/02/24 03:58:25;;;;;;;3.60;1.33;;;2.70;99.90;;;;;;5105687;28;20070;-69
2024/02/24 04:00:52;;;;;;;4.10;1.50;;;2.70;99.90;;;;;;5107829;28;20073;-64
2024/02/24 04:03:19;;;;;;;6.47;2.13;;;2.80;99.90;;;;;;5105267;28;20642;-62
2024/02/24 04:05:46;;;;;;;6.78;1.65;;;2.70;99.90;;;;;;5107451;28;20428;-64
2024/02/24 04:08:14;;;;;;;2.65;1.40;;;2.80;99.90;;;;;;5107360;28;20051;-60
2024/02/24 04:10:45;;;;;;;5.55;1.42;;;2.80;99.90;;;;;;5109249;28;20047;-61
2024/02/24 04:13:12;;;;;;;3.38;1.48;;;2.80;99.90;;;;;;5106076;28;20115;-62
2024/02/24 04:15:46;;;;;;;5.65;1.50;;;2.80;99.90;;;;;;5108592;28;20053;-60
2024/02/24 04:18:14;;;;;;;4.05;1.30;;;2.90;99.90;;;;;;5107027;28;20562;-62
2024/02/24 04:20:44;;;;;;;2.72;1.58;;;2.90;99.90;;;;;;5104189;28;20028;-60
2024/02/24 04:23:11;;;;;;;6.40;2.30;;;2.90;99.90;;;;;;5106568;28;20047;-61
2024/02/24 04:25:38;;;;;;;2.80;1.17;;;3.00;99.90;;;;;;5108988;28;20043;-61
2024/02/24 04:28:05;;;;;;;4.13;1.50;;;3.00;99.90;;;;;;5107395;28;20036;-63
2024/02/24 04:30:32;;;;;;;2.88;1.23;;;3.00;99.90;;;;;;5108518;28;20066;-61
2024/02/24 04:32:59;;;;;;;2.70;1.00;;;3.00;99.90;;;;;;5104741;28;20653;-61
2024/02/24 04:35:26;;;;;;;2.53;1.23;;;3.00;99.90;;;;;;5108630;28;20047;-61
2024/02/24 04:37:54;;;;;;;4.60;1.45;;;3.00;99.90;;;;;;5105732;28;20060;-61
2024/02/24 04:40:20;;;;;;;5.68;1.80;;;3.00;99.90;;;;;;5108730;28;20047;-62
2024/02/24 04:42:47;;;;;;;2.95;1.42;;;3.00;99.90;;;;;;5107380;28;20043;-63
2024/02/24 04:45:14;;;;;;;12.95;1.60;;;3.00;99.90;;;;;;5108026;28;20089;-60
2024/02/24 04:47:41;;;;;;;4.85;1.20;;;3.00;99.90;;;;;;5107539;28;20109;-60
2024/02/24 04:50:09;;;;;;;5.45;1.52;;;3.00;99.90;;;;;;5106378;28;20054;-65
2024/02/24 04:52:36;;;;;;;5.88;1.55;;;3.00;99.90;;;;;;5107361;28;20035;-62
2024/02/24 04:55:03;;;;;;;8.10;1.70;;;3.00;99.90;;;;;;5108089;28;20039;-62
2024/02/24 04:57:30;;;;;;;2.85;1.50;;;3.00;99.90;;;;;;5107216;28;20088;-61
2024/02/24 04:59:57;;;;;;;3.53;1.13;;;3.00;99.90;;;;;;5108048;28;20043;-61
2024/02/24 05:02:24;;;;;;;3.78;1.00;;;3.00;99.90;;;;;;5107488;28;20043;-61
2024/02/24 05:04:52;;;;;;;3.55;1.20;;;3.00;99.90;;;;;;5106166;28;20046;-61
2024/02/24 05:07:19;;;;;;;6.65;1.02;;;3.00;99.90;;;;;;5107685;28;20051;-60
2024/02/24 05:09:46;;;;;;;5.32;1.40;;;3.00;99.90;;;;;;5108451;28;20130;-63
2024/02/24 05:12:13;;;;;;;3.30;1.67;;;3.00;99.90;;;;;;5104218;28;20450;-62
2024/02/24 05:14:40;;;;;;;7.25;2.40;;;3.00;99.90;;;;;;5106651;28;20055;-63
2024/02/24 05:17:07;;;;;;;4.35;1.42;;;3.00;99.90;;;;;;5108440;28;20039;-63
2024/02/24 05:19:35;;;;;;;3.30;2.05;;;3.00;99.90;;;;;;5111666;28;20088;-65
2024/02/24 05:22:02;;;;;;;3.33;1.45;;;3.00;99.90;;;;;;5110182;28;20105;-61
2024/02/24 05:24:29;;;;;;;7.65;2.15;;;3.00;99.90;;;;;;5108981;28;20049;-67
2024/02/24 05:26:56;;;;;;;4.22;1.60;;;2.90;99.90;;;;;;5106361;28;20051;-62
2024/02/24 05:29:23;;;;;;;4.60;1.23;;;2.90;99.90;;;;;;5108189;28;20044;-62
2024/02/24 05:31:50;;;;;;;2.85;1.23;;;2.90;99.90;;;;;;5105299;28;20049;-63
2024/02/24 05:34:16;;;;;;;3.03;1.63;;;2.90;99.90;;;;;;5108467;28;20054;-68
2024/02/24 05:36:44;;;;;;;10.27;4.30;;;2.90;99.90;;;;;;5104723;28;20048;-64
2024/02/24 05:39:12;;;;;;;5.50;1.80;;;2.90;99.90;;;;;;5109408;28;20093;-65
2024/02/24 05:41:39;;;;;;;3.55;1.40;;;2.90;99.90;;;;;;5104586;28;20043;-62
2024/02/24 05:44:06;;;;;;;5.03;1.55;;;2.90;99.90;;;;;;5108856;28;20047;-60
2024/02/24 05:46:33;;;;;;;8.95;1.88;;;2.90;99.90;;;;;;5107787;28;20055;-64
2024/02/24 05:49:00;;;;;;;6.55;1.63;;;2.90;99.90;;;;;;5106102;28;20044;-63
2024/02/24 05:51:27;;;;;;;5.97;1.85;;;2.90;99.90;;;;;;5111395;28;20644;-64
2024/02/24 05:53:55;;;;;;;8.10;2.17;;;2.90;99.90;;;;;;5110562;28;20039;-61
2024/02/24 05:56:22;;;;;;;3.45;2.15;;;2.90;99.90;;;;;;5109230;28;20052;-63
2024/02/24 05:58:49;;;;;;;4.78;2.22;;;2.90;99.90;;;;;;5106779;28;20518;-63
2024/02/24 06:01:16;;;;;;;3.22;2.45;;;2.90;99.90;;;;;;5105703;28;20048;-63
2024/02/24 06:03:43;;;;;;;6.13;2.38;;;2.80;99.90;;;;;;5107609;28;20093;-60
2024/02/24 06:06:10;;;;;;;9.05;2.70;;;2.80;99.90;;;;;;5110129;28;20044;-66
2024/02/24 06:08:37;;;;;;;4.00;2.15;;;2.80;99.90;;;;;;5105214;28;20067;-61
2024/02/24 06:11:04;;;;;;;4.38;2.38;;;2.90;99.90;;;;;;5111112;28;20047;-65
2024/02/24 06:13:31;;;;;;;6.93;2.67;;;2.90;99.90;;;;;;5110745;28;20044;-61
2024/02/24 06:15:58;;;;;;;4.47;1.75;;;2.90;99.90;;;;;;5107613;28;20445;-60
2024/02/24 06:18:25;;;;;;;5.95;3.40;;;2.90;99.90;;;;;;5107445;28;20039;-65
2024/02/24 06:20:52;;;;;;;5.10;2.38;;;2.90;99.90;;;;;;5106667;28;20548;-61
2024/02/24 06:23:20;;;;;;;6.90;3.08;;;2.90;99.90;;;;;;5104761;28;20055;-61
2024/02/24 06:25:47;;;;;;;5.22;2.45;;;2.90;99.90;;;;;;5108373;28;20590;-60
2024/02/24 06:28:14;;;;;;;5.22;2.72;;;3.00;99.90;;;;;;5109138;28;20040;-60
2024/02/24 06:30:41;;;;;;;4.70;2.45;;;3.00;99.90;;;;;;5107208;28;20939;-65
2024/02/24 06:33:08;;;;;;;9.65;2.50;;;3.00;99.90;;;;;;5110291;28;20043;-64
2024/02/24 06:35:36;;;;;;;5.60;1.88;;;3.00;99.90;;;;;;5110390;28;20116;-60
2024/02/24 06:38:03;;;;;;;3.70;2.58;;;3.00;99.90;;;;;;5105962;28;20403;-61
2024/02/24 06:40:30;;;;;;;6.55;2.33;;;3.10;99.90;;;;;;5110074;28;20039;-69
2024/02/24 06:43:10;;;;;;;3.97;1.63;;;3.10;99.90;;;;;;5103608;28;20579;-66
2024/02/24 06:45:38;;;;;;;6.88;2.88;;;3.10;99.90;;;;;;5108740;28;20055;-66
2024/02/24 06:48:05;;;;;;;3.10;1.85;;;3.20;99.90;;;;;;5104916;28;20035;-61
2024/02/24 06:50:32;;;;;;;6.28;1.90;;;3.20;99.90;;;;;;5107356;28;20117;-64
2024/02/24 06:52:59;;;;;;;2.15;1.65;;;3.20;99.90;;;;;;5108912;28;20040;-61
2024/02/24 06:55:26;;;;;;;2.33;2.05;;;3.20;99.90;;;;;;5107300;28;20453;-63
2024/02/24 06:57:53;;;;;;;6.03;1.92;;;3.30;99.90;;;;;;5103854;28;20058;-64
2024/02/24 07:00:21;;;;;;;6.55;1.95;;;3.30;99.90;;;;;;5108354;28;20062;-63
2024/02/24 07:02:49;;;;;;;5.10;3.50;;;3.30;99.90;;;;;;5108614;28;20122;-62
2024/02/24 07:05:17;;;;;;;4.95;2.00;;;3.40;99.90;;;;;;5109996;28;20083;-62
2024/02/24 07:07:44;;;;;;;4.15;1.73;;;3.40;99.90;;;;;;5110210;28;20040;-61
2024/02/24 07:10:11;;;;;;;2.17;1.85;;;3.40;99.90;;;;;;5105947;28;20510;-63
2024/02/24 07:12:38;;;;;;;27.70;3.70;;;3.40;99.90;;;;;;5107597;28;20059;-62
2024/02/24 07:15:10;;;;;;;3.88;1.88;;;3.40;99.90;;;;;;5106297;28;20122;-62
2024/02/24 07:17:37;;;;;;;3.42;1.42;;;3.40;99.90;;;;;;5088973;28;20455;-65
2024/02/24 07:20:04;;;;;;;4.03;1.60;;;3.40;99.90;;;;;;5108824;28;20047;-64
2024/02/24 07:22:31;;;;;;;5.32;1.35;;;3.40;99.90;;;;;;5105299;28;20466;-67
2024/02/24 07:24:58;;;;;;;8.88;1.80;;;3.50;99.90;;;;;;5087817;28;20104;-63
2024/02/24 07:27:26;;;;;;;6.70;2.00;;;3.50;99.90;;;;;;5105625;28;20047;-63
2024/02/24 07:29:53;;;;;;;1.95;1.75;;;3.50;99.90;;;;;;5109000;28;20059;-66
2024/02/24 07:32:20;;;;;;;4.07;1.95;;;3.50;99.90;;;;;;5106067;28;20046;-62
2024/02/24 07:34:48;;;;;;;4.45;1.60;;;3.50;99.90;;;;;;5088035;28;20055;-65
2024/02/24 07:37:15;;;;;;;5.88;1.95;;;3.50;99.90;;;;;;5109284;28;20123;-65
2024/02/24 07:39:43;;;;;;;4.53;2.10;;;3.60;99.90;;;;;;5109166;28;20039;-63
2024/02/24 07:42:10;;;;;;;11.23;1.80;;;3.60;99.90;;;;;;5108351;28;20109;-64
2024/02/24 07:44:38;;;;;;;6.40;1.80;;;3.60;99.90;;;;;;5107421;28;20039;-62
2024/02/24 07:47:06;;;;;;;5.32;2.05;;;3.60;99.90;;;;;;5109283;28;20063;-63
2024/02/24 07:49:34;;;;;;;4.30;2.00;;;3.60;99.90;;;;;;5109317;28;20048;-63
2024/02/24 07:52:01;;;;;;;3.70;1.70;;;3.60;99.90;;;;;;5109205;28;20802;-64
2024/02/24 07:54:28;;;;;;;3.38;2.05;;;3.70;99.90;;;;;;5109666;28;20410;-64
2024/02/24 07:56:55;;;;;;;7.28;2.90;;;3.70;99.90;;;;;;5108474;28;20055;-63
2024/02/24 07:59:22;;;;;;;7.25;2.22;;;3.70;99.90;;;;;;5109127;28;20081;-63
2024/02/24 08:01:49;;;;;;;3.03;2.45;;;3.70;99.90;;;;;;5107768;28;20043;-62
2024/02/24 08:04:16;;;;;;;3.22;2.15;;;3.70;99.90;;;;;;5109369;28;20494;-64
2024/02/24 08:06:43;;;;;;;3.97;2.38;;;3.80;99.90;;;;;;5108827;28;20043;-64
2024/02/24 08:09:10;;;;;;;9.80;2.78;;;3.80;99.90;;;;;;5106332;28;20118;-64
2024/02/24 08:11:40;;;;;;;8.18;2.15;;;3.80;99.90;;;;;;5107261;28;20109;-66
2024/02/24 08:14:08;;;;;;;16.65;2.50;;;3.80;99.90;;;;;;5107846;28;20039;-62
2024/02/24 08:16:36;;;;;;;9.80;2.70;;;3.90;99.90;;;;;;5108450;28;20074;-62
2024/02/24 08:19:03;;;;;;;13.82;3.63;;;3.90;99.90;;;;;;5107328;28;20044;-66
2024/02/24 08:21:31;;;;;;;6.22;3.70;;;3.90;99.90;;;;;;5107976;28;20128;-64
2024/02/24 08:23:58;;;;;;;11.15;2.50;;;3.90;99.90;;;;;;5108266;28;20117;-62
2024/02/24 08:26:25;;;;;;;6.05;3.58;;;3.90;99.90;;;;;;5101343;28;20040;-73
2024/02/24 08:28:52;;;;;;;9.85;3.35;;;4.00;99.90;;;;;;5107251;28;20097;-65
2024/02/24 08:31:19;;;;;;;8.10;3.10;;;4.00;99.90;;;;;;5089469;28;20538;-63
2024/02/24 08:33:46;;;;;;;19.77;4.07;;;4.00;99.90;;;;;;5103552;28;20437;-68
2024/02/24 08:36:16;;;;;;;9.15;3.00;;;4.00;99.90;;;;;;5108192;28;20039;-65
2024/02/24 08:38:44;;;;;;;16.75;4.05;;;4.00;99.90;;;;;;5106322;28;20046;-61
2024/02/24 08:41:11;;;;;;;10.60;3.53;;;4.00;99.90;;;;;;5106008;28;20122;-64
2024/02/24 08:43:38;;;;;;;3.00;2.35;;;4.10;99.90;;;;;;5105888;28;20051;-63
2024/02/24 08:46:05;;;;;;;5.05;3.05;;;4.10;99.90;;;;;;5105341;28;20441;-67
2024/02/24 08:48:34;;;;;;;6.78;2.58;;;4.00;99.90;;;;;;5108628;28;20047;-64
2024/02/24 08:51:03;;;;;;;7.03;3.15;;;4.10;99.90;;;;;;5108447;28;20637;-61
2024/02/24 08:53:31;;;;;;;8.40;2.55;;;4.00;99.90;;;;;;5111630;28;20051;-67
2024/02/24 08:56:01;;;;;;;6.78;3.17;;;4.10;99.90;;;;;;5111147;28;20051;-62
2024/02/24 08:58:28;;;;;;;;;;;4.10;99.90;;;;;;5110387;28;20073;-68
2024/02/24 09:00:56;;;;;;;4.28;2.47;;;4.10;99.90;;;;;;5109929;28;19955;-61
2024/02/24 09:03:23;;;;;;;10.93;3.33;;;4.10;99.90;;;;;;5109913;28;20579;-63
2024/02/24 09:05:51;;;;;;;5.30;3.45;;;4.10;99.90;;;;;;5111213;28;20119;-62
2024/02/24 09:08:18;;;;;;;6.22;3.25;;;4.20;99.90;;;;;;5111657;28;20047;-62
2024/02/24 09:10:45;;;;;;;7.13;3.17;;;4.20;99.90;;;;;;5106527;28;20044;-61
2024/02/24 09:13:12;;;;;;;4.80;2.83;;;4.20;99.90;;;;;;5110639;28;20036;-63
2024/02/24 09:15:39;;;;;;;8.77;3.45;;;4.20;99.90;;;;;;5106948;28;20055;-62
2024/02/24 09:18:07;;;;;;;7.22;3.80;;;4.20;99.90;;;;;;5111616;28;20044;-61
2024/02/24 09:20:35;;;;;;;13.02;3.75;;;4.30;99.90;;;;;;5111475;28;20036;-62
2024/02/24 09:23:03;;;;;;;3.80;3.15;;;4.30;99.90;;;;;;5109839;28;20097;-65
2024/02/24 09:25:30;;;;;;;4.57;3.85;;;4.30;99.90;;;;;;5092281;28;20044;-64
2024/02/24 09:27:57;;;;;;;6.82;5.03;;;4.30;99.90;;;;;;5110750;28;20506;-63
2024/02/24 09:30:24;;;;;;;4.90;3.10;;;4.30;99.90;;;;;;5107191;28;20051;-63
2024/02/24 09:32:51;;;;;;;6.20;4.25;;;4.40;99.90;;;;;;5105502;28;20043;-61
2024/02/24 09:35:18;;;;;;;6.53;3.83;;;4.40;99.90;;;;;;5111165;28;20078;-62
2024/02/24 09:37:45;;;;;;;6.57;3.97;;;4.40;99.90;;;;;;5111283;28;20130;-64
2024/02/24 09:40:12;;;;;;;8.57;3.58;;;4.40;99.90;;;;;;5109232;28;20035;-62
2024/02/24 09:42:39;;;;;;;8.73;3.80;;;4.40;99.90;;;;;;5109813;28;20042;-60
2024/02/24 09:45:12;;;;;;;6.18;3.00;;;4.40;99.90;;;;;;5110726;28;20048;-62
2024/02/24 09:47:43;;;;;;;5.00;4.40;;;4.50;99.90;;;;;;5111846;28;20118;-61
2024/02/24 09:50:11;;;;;;;10.90;4.32;;;4.40;99.90;;;;;;5111471;28;20044;-61
2024/02/24 09:52:39;;;;;;;6.85;4.22;;;4.40;99.90;;;;;;5109413;28;20126;-63
2024/02/24 09:55:06;;;;;;;11.13;6.07;;;4.40;99.90;;;;;;5111298;28;20390;-62
2024/02/24 09:57:37;;;;;;;6.60;4.22;;;4.40;99.90;;;;;;5111543;28;20527;-64
2024/02/24 10:00:05;;;;;;;12.38;5.22;;;4.40;99.90;;;;;;5110304;28;20564;-63
2024/02/24 10:02:41;;;;;;;6.47;4.32;;;4.40;99.90;;;;;;5107505;28;20124;-61
2024/02/24 10:05:08;;;;;;;7.78;3.83;;;4.40;99.90;;;;;;5100057;28;20043;-63
2024/02/24 10:07:36;;;;;;;9.70;4.45;;;4.30;99.90;;;;;;5107275;28;20048;-63
2024/02/24 10:10:03;;;;;;;6.00;3.90;;;4.40;99.90;;;;;;5107061;28;20042;-64
2024/02/24 10:12:30;;;;;;;5.25;3.70;;;4.40;99.90;;;;;;5111330;28;20040;-62
2024/02/24 10:14:59;;;;;;;5.35;3.45;;;4.40;99.90;;;;;;5109456;28;20443;-62
2024/02/24 10:17:29;;;;;;;4.53;3.05;;;4.40;99.90;;;;;;5109407;28;20126;-62
2024/02/24 10:19:57;;;;;;;;;;;4.40;99.90;;;;;;5107502;28;20044;-65
2024/02/24 10:22:25;;;;;;;5.10;3.83;;;4.40;99.90;;;;;;5110724;28;19927;-66
2024/02/24 10:24:52;;;;;;;6.65;4.00;;;4.40;99.90;;;;;;5109853;28;20040;-61
2024/02/24 10:27:19;;;;;;;5.35;3.20;;;4.40;99.90;;;;;;5107508;28;20067;-65
2024/02/24 10:29:52;;;;;;;5.47;3.38;;;4.40;99.90;;;;;;5109832;28;20046;-61
2024/02/24 10:32:20;;;;;;;5.10;3.15;;;4.40;99.90;;;;;;5107319;28;20576;-65
2024/02/24 10:34:48;;;;;;;5.70;3.28;;;4.40;99.90;;;;;;5101378;28;20032;-63
2024/02/24 10:37:16;;;;;;;5.85;3.55;;;4.40;99.90;;;;;;5104596;28;20082;-65
2024/02/24 10:39:44;;;;;;;3.97;3.50;;;4.40;99.90;;;;;;5110655;28;20109;-64
2024/02/24 10:42:11;;;;;;;10.27;3.63;;;4.40;99.90;;;;;;5109112;28;20122;-63
2024/02/24 10:44:39;;;;;;;3.92;3.17;;;4.50;99.90;;;;;;5090424;28;20078;-61
2024/02/24 10:47:06;;;;;;;12.57;6.60;;;4.40;99.90;;;;;;5107993;28;20135;-62
2024/02/24 10:49:33;;;;;;;4.55;3.58;;;4.50;99.90;;;;;;5109669;28;20040;-62
2024/02/24 10:52:01;;;;;;;5.32;3.75;;;4.50;99.90;;;;;;5110481;28;20043;-61
2024/02/24 10:54:32;;;;;;;6.35;3.75;;;4.50;99.90;;;;;;5108482;28;20051;-62
2024/02/24 10:57:01;;;;;;;9.55;3.63;;;4.60;99.90;;;;;;5107092;28;20134;-64
2024/02/24 10:59:29;;;;;;;4.13;2.92;;;4.60;99.90;;;;;;5106281;28;20066;-62
2024/02/24 11:02:01;;;;;;;5.63;3.55;;;4.60;99.90;;;;;;5108835;28;20126;-61
2024/02/24 11:04:32;;;;;;;5.25;3.15;;;4.60;99.90;;;;;;5109306;28;20058;-62
2024/02/24 11:07:03;;;;;;;4.88;3.22;;;4.70;99.90;;;;;;5109277;28;20097;-65
2024/02/24 11:09:35;;;;;;;5.00;2.70;;;4.70;99.90;;;;;;5107120;28;20085;-63
2024/02/24 11:12:03;;;;;;;5.32;3.67;;;4.70;99.90;;;;;;5109781;28;20142;-62
2024/02/24 11:14:31;;;;;;;6.43;3.72;;;4.70;99.90;;;;;;5107163;28;20045;-65
2024/02/24 11:16:59;;;;;;;5.70;4.15;;;4.80;99.90;;;;;;5089390;28;20558;-61
2024/02/24 11:19:45;;;;;;;5.22;4.25;;;4.70;99.90;;;;;;5109480;28;20063;-61
2024/02/24 11:22:29;;;;;;;4.82;3.00;;;4.70;99.90;;;;;;5106122;28;20047;-61
2024/02/24 11:25:01;;;;;;;5.05;3.78;;;4.70;99.90;;;;;;5107614;28;20114;-62
2024/02/24 11:27:34;;;;;;;10.45;5.85;;;4.80;99.90;;;;;;5088238;28;20048;-65
2024/02/24 11:30:39;;;;;;;6.72;5.40;;;4.80;99.90;;;;;;5107959;28;20054;-63
2024/02/24 11:33:43;;;;;;;4.82;4.15;;;4.80;99.90;;;;;;5104806;28;20047;-63
2024/02/24 11:36:11;;;;;;;8.27;5.18;;;4.80;99.90;;;;;;5103449;28;20054;-63
2024/02/24 11:38:38;;;;;;;4.47;4.07;;;4.80;99.90;;;;;;5108475;28;20044;-65
2024/02/24 11:41:06;;;;;;;5.63;4.43;;;4.80;99.90;;;;;;5108772;28;20078;-66
2024/02/24 11:43:33;;;;;;;7.35;5.93;;;4.80;99.90;;;;;;5106039;28;20047;-63
2024/02/24 11:46:03;;;;;;;7.30;3.85;;;4.80;99.90;;;;;;5105433;28;20048;-62
2024/02/24 11:48:30;;;;;;;4.72;3.10;;;4.80;99.90;;;;;;5106133;28;20044;-67
2024/02/24 11:50:58;;;;;;;3.35;2.88;;;4.80;99.90;;;;;;5108749;28;20124;-64
2024/02/24 11:53:27;;;;;;;4.90;2.72;;;4.80;99.90;;;;;;5108624;28;20057;-62
2024/02/24 11:55:55;;;;;;;2.60;2.40;;;4.80;99.90;;;;;;5106935;28;20039;-64
2024/02/24 11:58:22;;;;;;;2.53;2.33;;;4.80;99.90;;;;;;5108471;28;20048;-62
2024/02/24 12:00:49;;;;;;;4.18;1.63;;;4.70;99.90;;;;;;5109207;28;20052;-66
2024/02/24 12:03:16;;;;;;;2.20;1.83;;;4.70;99.90;;;;;;5107842;28;20411;-61
2024/02/24 12:05:44;;;;;;;1.55;1.45;;;4.70;99.90;;;;;;5105523;28;20531;-62
2024/02/24 12:08:15;;;;;;;4.53;1.92;;;4.70;99.90;;;;;;5108142;28;20046;-67
2024/02/24 12:10:42;;;;;;;5.65;1.80;;;4.70;99.90;;;;;;5104083;28;20068;-63
2024/02/24 12:13:10;;;;;;;2.00;1.38;;;4.70;99.90;;;;;;5104272;28;20059;-61
2024/02/24 12:15:45;;;;;;;4.30;2.63;;;4.70;99.90;;;;;;5108134;28;20035;-69
2024/02/24 12:18:12;;;;;;;3.47;3.13;;;4.70;99.90;;;;;;5104137;28;20434;-63
2024/02/24 12:20:41;;;;;;;4.97;2.72;;;4.70;99.90;;;;;;5107574;28;20139;-61
2024/02/24 12:23:10;;;;;;;2.55;2.20;;;4.70;99.90;;;;;;5107199;28;20564;-62
2024/02/24 12:25:37;;;;;;;2.42;1.90;;;4.70;99.90;;;;;;5104575;28;20050;-65
2024/02/24 12:28:04;;;;;;;2.28;1.90;;;4.70;99.90;;;;;;5110081;28;20057;-61
2024/02/24 12:30:42;;;;;;;4.70;2.38;;;4.70;99.90;;;;;;5108714;28;20047;-64
2024/02/24 12:33:15;;;;;;;7.22;3.45;;;4.60;99.90;;;;;;5110472;28;20046;-61
2024/02/24 12:35:47;;;;;;;3.20;2.00;;;4.70;99.90;;;;;;5110256;28;20032;-64
2024/02/24 12:38:18;;;;;;;1.58;1.40;;;4.60;99.90;;;;;;5110996;28;20062;-62
2024/02/24 12:40:46;;;;;;;3.85;1.70;;;4.60;99.90;;;;;;5109425;28;20050;-64
2024/02/24 12:43:13;;;;;;;2.40;1.92;;;4.60;99.90;;;;;;5112238;28;20599;-65
2024/02/24 12:45:40;;;;;;;2.45;1.88;;;4.60;99.90;;;;;;5112687;28;20118;-64
2024/02/24 12:48:07;;;;;;;1.63;1.27;;;4.60;99.90;;;;;;5110620;28;20047;-65
2024/02/24 12:50:35;;;;;;;2.13;1.45;;;4.60;99.90;;;;;;5110455;28;20043;-64
2024/02/24 12:53:07;;;;;;;2.55;1.73;;;4.60;99.90;;;;;;5112249;28;20052;-61
2024/02/24 12:55:35;;;;;;;1.58;1.30;;;4.50;99.90;;;;;;5109289;28;20075;-65
2024/02/24 12:58:02;;;;;;;3.72;1.35;;;4.50;99.90;;;;;;5111572;28;20716;-62
2024/02/24 13:00:29;;;;;;;4.28;1.90;;;4.50;99.90;;;;;;5111798;28;20048;-69
2024/02/24 13:02:59;;;;;;;3.90;0.77;;;4.50;99.90;;;;;;5111458;28;20560;-63